OTWK1: Marais Des Cygnes River, Ottawa, KS

                                SHEF ID:       OTWK1     MARAIS DES CYGNES R NR OTTAWA, K
STATION TYPE:

PRECIP STAGE RIV-FLOW BAT-LOAD
in ft cfs volt
Ccp-Rev Ccp-Rev Ccp-Rev Ccp-Rev
(America/Chicago)
02/23 00:00 0.00 7.69 1085 12.49
02/23 01:00 0.00 7.59 1053 12.49
02/23 02:00 0.00 7.50 1024 12.49
02/23 03:00 0.00 7.40 992 12.41
02/23 04:00 0.00 7.31 964 12.41
02/23 05:00 0.00 7.21 933 12.41
02/23 06:00 0.00 7.12 905 12.33
02/23 07:00 0.00 7.04 881 12.33
02/23 08:00 0.00 6.97 860 12.33
02/23 09:00 0.00 6.90 839 12.97
02/23 10:00 0.00 6.85 824 13.68
02/23 11:00 0.00 6.80 810 13.60
02/23 12:00 0.00 6.77 801 13.37
02/23 13:00 0.00 6.73 789 13.29
02/23 14:00 0.00 6.69 778 13.21
02/23 15:00 0.00 6.67 772 13.13
02/23 16:00 0.00 6.65 766 12.89
02/23 17:00 0.00 6.64 763 12.81
02/23 18:00 0.00 6.63 760 12.73
02/23 19:00 0.00 6.63 760 12.65
02/23 20:00 0.00 6.63 760 12.65
02/23 21:00 0.00 6.62 758 12.57
02/23 22:00 0.00 6.61 755 12.57
02/23 23:00 0.00 6.60 752 12.49
Data processed at Sat 24Feb2024 05:39 GMT

Parsing this webpage?

Checkout our new Data API! CWMSDataAPI (CDA)

Timeseries IDs (TSIDs)

TSIDs used from left to right in the data table
OTTK.Precip-Inc.Total.1Hour.1Hour.Ccp-Rev
OTTK.Stage.Inst.1Hour.0.Ccp-Rev
OTTK.Flow.Inst.1Hour.0.Ccp-Rev
OTTK.Volt-Battery Load.Inst.1Hour.0.Ccp-Rev

                            

All information presented herein is the property of the government of the United States of America and may be revised or deleted at any time without prior notice. Dissemination of this information without the expressed written consent of the Public Affairs Office, Tulsa District U.S. Army Corps of Engineers is strictly prohibited. These data are gathered electronically and, as presented, have NOT undergone any form of quality control. These data are NOT guaranteed to be valid or correct.